Fairplay, CO (80440)

11:03 PM MST on March 01, 2015 (GMT -0700)
Foxtail Pines | Change Station
CLOSE
Current Station
Personal Weather Station
Location: Fairplay, CO
Elevation: 10240 ft
Nearby Weather Stations

Elev 10240 ft 39.20 °N, 106.04 °W | Updated 48 seconds ago

Snow
Snow
22.3 °F
Feels Like 22 °F
N
0.0
Wind Variable Wind from NNE
Gusts 0.0 mph

Today
High -- | Low -- °F
--% Chance of Precip.
Yesterday
High -- | Low -- °F
Precip. -- in
6:36 AM 5:56 PM
Waxing Gibbous, 89% visible
Pressure 29.99 in
Visibility 3.0 miles
Clouds Scattered Clouds 400 ft
Overcast 4400 ft
Windchill 22 °F
Dew Point 19 °F
Humidity 86%
Rainfall 0.09 in
Snow Depth Not available.
UV 0.0 out of 12
Pollen .70 out of 12
Air Quality Not available.
Flu Activity Not available.
METAR KLXV 020553Z AUTO 00000KT 3SM -SN BR SCT004 OVC044 M06/M07 A3005 RMK AO2 SLP153 P0000 60007 T10611067 11044 21061 58006

More Conditions Fewer Conditions

Pressure 29.99 in
Visibility 3.0 miles
Clouds Scattered Clouds 400 ft
Overcast 4400 ft
Windchill 22 °F
Dew Point 19 °F
Humidity 86%
Rainfall 0.09 in
Snow Depth Not available.
UV 0.0 out of 12
Pollen .70 out of 12
Air Quality Not available.
Flu Activity Not available.
METAR KLXV 020553Z AUTO 00000KT 3SM -SN BR SCT004 OVC044 M06/M07 A3005 RMK AO2 SLP153 P0000 60007 T10611067 11044 21061 58006

More Conditions Fewer Conditions

10-Day Weather Forecast

Almanac

Astronomy

Mar. 01, 2015 Rise Set
Actual Time
Civil Twilight
Nautical Twilight
Astronomical Twilight
Moon
Length of Visible Light
Length of Day
Tomorrow will be .
, % of the Moon is Illuminated

Today's Extremes

State Highs State Lows

Community

WunderPhotos

Upload Photos

1,801,738 photos uploaded!

WunderBlogs® & News

Nearby

Air Quality

  Air Quality AQ Index Pollutant
Not available.

Snow Depth

Station Depth Elevation

Earthquake Activity

City Distance Mag. Time & Date
Minimum magnitude displayed is 2.5.

Coastal Water Temperatures

Place Temperature

Nearby Weather Stations